Sturgeon Bay, WI (54235)

3:41 PM CDT on April 27, 2017 (GMT -0500)
Redwood | | Change Station

Elev 676 ft 44.83 °N, 87.39 °W | Updated 13 seconds ago

Light Rain
Light Rain
45.3 °F
Feels Like 41 °F
N
8.7
Wind Variable Wind from WSW
Gusts 15.0 mph

Today
High -- | Low -- °F
--% Chance of Precip.
Yesterday
High -- | Low -- °F
Precip. -- in
Pressure 29.55 in
Visibility 10.0 miles
Clouds Overcast 1100 ft
Windchill 41 °F
Dew Point 44 °F
Humidity 95%
Rainfall 0.54 in
Snow Depth Not available.
5:44 AM 7:50 PM
Waxing Crescent, 3% visible
METAR KSUE 271956Z AUTO 25019G23KT 10SM -RA OVC011 04/02 A2948 RMK AO2 RAB17 SLP005 P0001 T00390022
Pressure 29.55 in
Visibility 10.0 miles
Clouds Overcast 1100 ft
Windchill 41 °F
Dew Point 44 °F
Humidity 95%
Rainfall 0.54 in
Snow Depth Not available.
5:44 AM 7:50 PM
Waxing Crescent, 3% visible
METAR KSUE 271956Z AUTO 25019G23KT 10SM -RA OVC011 04/02 A2948 RMK AO2 RAB17 SLP005 P0001 T00390022

Get Severe Weather Alerts

Thanks for signing up!

Be on the lookout for a verification email in your inbox.

You'll start receiving the daily forecast at 8 AM.

×

10-Day Weather Forecast

Almanac

Astronomy

Apr. 27, 2017 Rise Set
Actual Time
Civil Twilight
Nautical Twilight
Astronomical Twilight
Moon
Length of Visible Light
Length of Day
Tomorrow will be .
, % of the Moon is Illuminated

Today's Extremes

State Highs State Lows

Community

WunderPhotos

WunderBlog® & News

Nearby

Air Quality

  Air Quality AQ Index Pollutant
Not available.

Snow Depth

Station Depth Elevation

Earthquake Activity

City Distance Mag. Time & Date
Minimum magnitude displayed is 2.5.

Coastal Water Temperatures

Place Temperature

Stations

Nearby Weather Stations

Station Location Temp. Windchill Dew Point Humidity Wind Precip. Elev Updated Type
                   

Watches & Warnings

There are currently no watches in effect.